Boaz, Wisconsin
Current Conditions -  °F | °C
As of 10:56 PM on Saturday 25 Oct 2014 (Local Time) from KLNR Reporting Station
Clear Clear  
Wind Chill: 54°   Ceiling: Unl
Heat Index: 54°   Visibility: 10mi
Dew Point: 28°   Wind: 7mph
Humidity: 37%   Direction: 280°W
Pressure: 30.02"   Gusts: NA
Location:  43.4015°N, 90.4109°W
Report Text: KLNR 260356Z AUTO 28006KT 10SM CLR 12/M02 A3002 RMK AO2 SLP159 T01221022
Loading
Personal Weather Stations






























Interactive Weather Map
Tropical Storm Tracking
New forecast layout! Learn more

10-Day Weather Forecast

Advertisements
Track Severe Weather on mobile